Time;durP1;ratioP1;P1;durP2;ratioP2;P2;SDS_P1;SDS_P2;PMS_P1;PMS_P2;Temp;Humidity;BMP_temperature;BMP_pressure;BME280_temperature;BME280_humidity;BME280_pressure;Samples;Min_cycle;Max_cycle;Signal;HPM_P1;HPM_P2
2021/07/24 00:01:55;;;;;;;18.93;17.47;;;24.70;94.20;;;;;;3586065;40;20581;-53
2021/07/24 00:04:24;;;;;;;19.40;18.00;;;24.70;94.20;;;;;;3586972;40;20483;-52
2021/07/24 00:06:51;;;;;;;18.50;17.17;;;24.70;94.20;;;;;;3585921;40;20474;-52
2021/07/24 00:09:18;;;;;;;18.33;17.13;;;24.80;94.20;;;;;;3585472;40;20486;-55
2021/07/24 00:11:46;;;;;;;18.93;17.63;;;24.70;94.20;;;;;;3587835;40;20447;-53
2021/07/24 00:14:14;;;;;;;18.87;17.57;;;24.70;94.20;;;;;;3586023;40;20674;-53
2021/07/24 00:16:41;;;;;;;20.50;19.00;;;24.70;94.20;;;;;;3585787;40;20560;-54
2021/07/24 00:19:08;;;;;;;19.70;18.30;;;24.70;94.20;;;;;;3586032;40;20990;-56
2021/07/24 00:21:36;;;;;;;19.80;18.40;;;24.70;94.20;;;;;;3586967;40;20466;-53
2021/07/24 00:24:04;;;;;;;18.60;17.30;;;24.70;94.20;;;;;;3586054;40;20482;-56
2021/07/24 00:26:31;;;;;;;19.03;17.63;;;24.70;94.20;;;;;;3587239;40;20461;-55
2021/07/24 00:29:00;;;;;;;18.53;17.10;;;24.70;94.20;;;;;;3577542;40;20511;-56
2021/07/24 00:31:28;;;;;;;20.20;18.80;;;24.70;94.50;;;;;;3585979;40;20455;-57
2021/07/24 00:33:58;;;;;;;18.30;17.00;;;24.70;94.20;;;;;;3577358;40;20758;-55
2021/07/24 00:36:25;;;;;;;18.70;17.23;;;24.70;94.20;;;;;;3586443;40;20462;-53
2021/07/24 00:38:54;;;;;;;18.70;17.33;;;24.70;94.20;;;;;;3576654;40;20560;-52
2021/07/24 00:41:27;;;;;;;18.07;16.87;;;24.80;94.30;;;;;;3576307;40;20518;-56
2021/07/24 00:43:55;;;;;;;18.77;17.50;;;24.70;94.20;;;;;;3586850;40;20859;-53
2021/07/24 00:46:24;;;;;;;18.90;17.57;;;24.70;94.20;;;;;;3586789;40;20446;-55
2021/07/24 00:48:53;;;;;;;19.77;18.37;;;24.70;94.20;;;;;;3576954;40;20473;-54
2021/07/24 00:51:29;;;;;;;19.03;17.70;;;24.70;94.20;;;;;;3587208;40;20465;-56
2021/07/24 00:54:01;;;;;;;17.67;16.40;;;24.70;94.20;;;;;;3576529;40;20816;-54
2021/07/24 00:56:30;;;;;;;19.17;17.77;;;24.70;94.20;;;;;;3586580;40;20496;-55
2021/07/24 00:58:58;;;;;;;17.90;16.70;;;24.70;94.20;;;;;;3585495;40;20462;-53
2021/07/24 01:01:25;;;;;;;17.87;16.67;;;24.70;94.20;;;;;;3585352;40;20458;-56
2021/07/24 01:03:53;;;;;;;18.73;17.43;;;24.70;94.20;;;;;;3577095;40;21220;-54
2021/07/24 01:06:21;;;;;;;18.60;17.20;;;24.70;94.20;;;;;;3568870;40;20478;-55
2021/07/24 01:08:49;;;;;;;19.87;18.47;;;24.70;94.20;;;;;;3586200;40;20478;-55
2021/07/24 01:11:18;;;;;;;19.00;17.70;;;24.70;94.20;;;;;;3577734;40;20911;-53
2021/07/24 01:13:46;;;;;;;19.70;18.30;;;24.70;94.20;;;;;;3587213;40;20562;-55
2021/07/24 01:16:13;;;;;;;18.67;17.37;;;24.70;94.20;;;;;;3585357;40;20928;-54
2021/07/24 01:18:43;;;;;;;18.60;17.30;;;24.70;94.20;;;;;;3576512;40;20454;-57
2021/07/24 01:21:24;;;;;;;19.53;18.20;;;24.70;94.20;;;;;;3577645;40;20474;-56
2021/07/24 01:23:52;;;;;;;17.73;16.63;;;24.70;94.20;;;;;;3586891;40;20564;-53
2021/07/24 01:26:27;;;;;;;18.90;17.60;;;24.70;94.20;;;;;;3585824;40;20730;-54
2021/07/24 01:28:56;;;;;;;18.10;16.90;;;24.70;94.20;;;;;;3576721;40;20466;-55
2021/07/24 01:31:24;;;;;;;17.77;16.50;;;24.70;94.20;;;;;;3577396;40;20474;-55
2021/07/24 01:33:53;;;;;;;19.40;18.10;;;24.70;94.20;;;;;;3577074;40;20454;-54
2021/07/24 01:36:22;;;;;;;18.73;17.43;;;24.70;94.20;;;;;;3585847;40;20441;-53
2021/07/24 01:38:50;;;;;;;18.80;17.30;;;24.70;94.20;;;;;;3576894;40;20473;-56
2021/07/24 01:41:17;;;;;;;19.40;18.10;;;24.70;94.20;;;;;;3576019;40;20790;-55
2021/07/24 01:43:46;;;;;;;18.90;17.60;;;24.70;94.20;;;;;;3584617;40;20466;-55
2021/07/24 01:46:15;;;;;;;18.53;17.23;;;24.70;94.20;;;;;;3586215;40;20459;-57
2021/07/24 01:49:05;;;;;;;19.27;17.97;;;24.70;94.20;;;;;;3576228;40;20697;-56
2021/07/24 01:54:35;;;;;;;19.50;18.10;;;24.70;94.20;;;;;;3584890;40;20512;-56
2021/07/24 01:57:07;;;;;;;17.07;15.87;;;24.70;94.20;;;;;;3584768;40;20751;-58
2021/07/24 01:59:45;;;;;;;17.43;16.37;;;24.70;94.20;;;;;;3576597;40;20751;-54
2021/07/24 02:02:15;;;;;;;18.20;16.90;;;24.70;94.20;;;;;;3585934;40;20469;-56
2021/07/24 02:04:50;;;;;;;18.47;17.13;;;24.70;94.20;;;;;;3575118;40;20475;-54
2021/07/24 02:07:22;;;;;;;19.23;17.73;;;24.70;94.20;;;;;;3585520;40;20489;-54
2021/07/24 02:09:51;;;;;;;17.47;16.27;;;24.70;94.20;;;;;;3585066;40;20735;-57
2021/07/24 02:12:34;;;;;;;17.60;16.40;;;24.70;94.20;;;;;;3585261;40;20571;-54
2021/07/24 02:15:01;;;;;;;17.50;16.23;;;24.70;94.20;;;;;;3585843;40;20969;-57
2021/07/24 02:17:32;;;;;;;18.90;17.60;;;24.70;94.20;;;;;;3576507;40;20446;-57
2021/07/24 02:20:05;;;;;;;19.40;18.00;;;24.70;94.20;;;;;;3585009;40;20528;-54
2021/07/24 02:22:34;;;;;;;18.30;17.10;;;24.70;94.20;;;;;;3586078;40;20469;-56
2021/07/24 02:25:02;;;;;;;17.03;15.90;;;24.70;94.20;;;;;;3574018;40;20845;-55
2021/07/24 02:27:32;;;;;;;17.47;16.27;;;24.70;94.20;;;;;;3573317;40;20852;-54
2021/07/24 02:30:01;;;;;;;17.90;16.50;;;24.70;94.20;;;;;;3575259;40;20669;-54
2021/07/24 02:32:28;;;;;;;18.17;16.87;;;24.70;94.20;;;;;;3573737;40;20447;-55
2021/07/24 02:34:56;;;;;;;18.47;17.07;;;24.70;94.20;;;;;;3574172;40;20487;-54
2021/07/24 02:37:23;;;;;;;18.07;16.77;;;24.70;94.20;;;;;;3575897;40;20459;-58
2021/07/24 02:39:52;;;;;;;17.77;16.57;;;24.70;94.20;;;;;;3574417;40;20635;-53
2021/07/24 02:42:20;;;;;;;17.13;15.97;;;24.70;94.20;;;;;;3566764;40;20451;-54
2021/07/24 02:44:47;;;;;;;17.77;16.57;;;24.70;94.20;;;;;;3566246;40;20764;-55
2021/07/24 02:47:16;;;;;;;18.73;17.33;;;24.70;94.20;;;;;;3575804;40;20494;-55
2021/07/24 02:49:49;;;;;;;18.07;16.80;;;24.70;94.20;;;;;;3575724;40;20447;-53
2021/07/24 02:52:17;;;;;;;17.60;16.40;;;24.70;94.20;;;;;;3575605;40;20467;-55
2021/07/24 02:54:44;;;;;;;18.90;17.60;;;24.70;94.20;;;;;;3575381;40;20463;-56
2021/07/24 02:57:13;;;;;;;17.70;16.47;;;24.70;94.20;;;;;;3576085;40;20470;-55
2021/07/24 02:59:40;;;;;;;17.87;16.67;;;24.70;94.20;;;;;;3575652;40;20451;-53
2021/07/24 03:02:07;;;;;;;18.30;17.10;;;24.70;94.20;;;;;;3576408;40;20680;-54
2021/07/24 03:04:34;;;;;;;17.77;16.60;;;24.70;94.20;;;;;;3575603;40;20490;-56
2021/07/24 03:07:02;;;;;;;18.37;17.07;;;24.70;94.20;;;;;;3576277;40;20465;-58
2021/07/24 03:09:29;;;;;;;17.30;16.10;;;24.70;94.20;;;;;;3575028;40;20493;-57
2021/07/24 03:11:56;;;;;;;17.37;16.23;;;24.70;94.20;;;;;;3574015;40;20715;-56
2021/07/24 03:14:25;;;;;;;18.50;17.20;;;24.70;94.20;;;;;;3574968;40;20568;-55
2021/07/24 03:16:52;;;;;;;16.90;15.80;;;24.70;94.20;;;;;;3575473;40;20451;-57
2021/07/24 03:19:19;;;;;;;17.40;16.20;;;24.70;94.20;;;;;;3575789;40;20562;-56
2021/07/24 03:21:46;;;;;;;17.50;16.30;;;24.70;94.20;;;;;;3574978;40;20459;-57
2021/07/24 03:24:14;;;;;;;18.07;16.87;;;24.70;94.20;;;;;;3578405;40;20923;-57
2021/07/24 03:26:41;;;;;;;19.10;17.80;;;24.70;94.20;;;;;;3584504;40;20458;-54
2021/07/24 03:29:09;;;;;;;18.50;17.23;;;24.70;94.20;;;;;;3585456;40;20470;-57
2021/07/24 03:31:37;;;;;;;18.47;17.27;;;24.70;94.20;;;;;;3575901;40;20757;-57
2021/07/24 03:34:05;;;;;;;19.27;17.97;;;24.70;94.20;;;;;;3586289;40;20528;-57
2021/07/24 03:36:32;;;;;;;18.50;17.10;;;24.70;94.20;;;;;;3576886;40;20750;-54
2021/07/24 03:38:59;;;;;;;17.60;16.30;;;24.70;94.20;;;;;;3585865;40;20675;-53
2021/07/24 03:41:26;;;;;;;18.57;17.23;;;24.70;94.20;;;;;;3585974;40;20465;-55
2021/07/24 03:43:53;;;;;;;19.20;17.90;;;24.70;94.20;;;;;;3577288;40;20472;-55
2021/07/24 03:46:21;;;;;;;17.33;16.23;;;24.70;94.20;;;;;;3584481;40;20649;-53
2021/07/24 03:48:50;;;;;;;16.67;15.57;;;24.70;94.20;;;;;;3585780;40;20572;-55
2021/07/24 03:51:17;;;;;;;17.07;15.97;;;24.70;94.20;;;;;;3586041;40;20825;-56
2021/07/24 03:53:44;;;;;;;17.83;16.57;;;24.70;94.20;;;;;;3585605;40;20455;-56
2021/07/24 03:56:16;;;;;;;17.60;16.40;;;24.70;94.20;;;;;;3586395;40;20446;-54
2021/07/24 03:58:44;;;;;;;18.97;17.57;;;24.70;94.20;;;;;;3586543;40;20474;-57
2021/07/24 04:01:11;;;;;;;19.40;18.07;;;24.70;94.30;;;;;;3577385;40;20660;-53
2021/07/24 04:03:39;;;;;;;19.33;18.00;;;24.70;94.20;;;;;;3585214;40;20466;-54
2021/07/24 04:06:08;;;;;;;17.20;16.10;;;24.70;94.20;;;;;;3586244;40;20514;-55
2021/07/24 04:08:36;;;;;;;17.47;16.30;;;24.70;94.20;;;;;;3586561;40;20769;-53
2021/07/24 04:11:05;;;;;;;18.03;16.83;;;24.70;94.20;;;;;;3577037;40;20674;-56
2021/07/24 04:13:33;;;;;;;17.90;16.80;;;24.70;94.20;;;;;;3585752;40;20481;-54
2021/07/24 04:16:00;;;;;;;18.50;17.20;;;24.70;94.20;;;;;;3585487;40;20876;-55
2021/07/24 04:18:31;;;;;;;17.97;16.77;;;24.70;94.20;;;;;;3585865;40;20474;-55
2021/07/24 04:20:59;;;;;;;18.20;17.00;;;24.70;94.20;;;;;;3586562;40;20813;-54
2021/07/24 04:23:29;;;;;;;17.77;16.57;;;24.70;94.20;;;;;;3586614;40;20555;-56
2021/07/24 04:25:57;;;;;;;18.07;16.87;;;24.70;94.20;;;;;;3576698;40;20490;-54
2021/07/24 04:28:24;;;;;;;17.80;16.60;;;24.70;94.20;;;;;;3586012;40;20451;-56
2021/07/24 04:30:52;;;;;;;18.13;16.90;;;24.70;94.20;;;;;;3586067;40;20694;-54
2021/07/24 04:33:19;;;;;;;17.70;16.50;;;24.70;94.20;;;;;;3576500;40;20573;-54
2021/07/24 04:35:47;;;;;;;16.80;15.70;;;24.70;94.20;;;;;;3584332;40;20465;-55
2021/07/24 04:38:15;;;;;;;17.83;16.67;;;24.70;94.20;;;;;;3574988;40;20613;-55
2021/07/24 04:40:44;;;;;;;18.23;17.07;;;24.70;94.20;;;;;;3575936;40;20466;-54
2021/07/24 04:43:13;;;;;;;18.00;16.80;;;24.70;94.20;;;;;;3585229;40;20466;-58
2021/07/24 04:45:41;;;;;;;17.43;16.23;;;24.70;94.20;;;;;;3585157;40;20559;-55
2021/07/24 04:48:08;;;;;;;18.07;16.87;;;24.70;94.20;;;;;;3585135;40;20450;-53
2021/07/24 04:50:38;;;;;;;18.40;17.20;;;24.70;94.20;;;;;;3585284;40;20486;-57
2021/07/24 04:53:06;;;;;;;17.73;16.57;;;24.70;94.20;;;;;;3583903;40;20453;-54
2021/07/24 04:55:36;;;;;;;17.33;16.23;;;24.70;94.20;;;;;;3584935;40;20486;-55
2021/07/24 04:58:05;;;;;;;18.33;17.23;;;24.70;94.20;;;;;;3584712;40;20454;-55
2021/07/24 05:00:33;;;;;;;18.03;16.87;;;24.70;94.20;;;;;;3586130;40;20454;-53
2021/07/24 05:03:00;;;;;;;18.33;17.13;;;24.70;94.20;;;;;;3584489;40;20594;-56
2021/07/24 05:05:27;;;;;;;17.53;16.40;;;24.70;94.20;;;;;;3574165;40;20470;-56
2021/07/24 05:07:55;;;;;;;18.57;17.37;;;24.80;94.30;;;;;;3584048;40;20465;-53
2021/07/24 05:10:22;;;;;;;17.70;16.53;;;24.70;94.20;;;;;;3584543;40;20463;-54
2021/07/24 05:12:49;;;;;;;17.83;16.63;;;24.70;94.20;;;;;;3584661;40;20889;-57
2021/07/24 05:15:18;;;;;;;17.50;16.33;;;24.70;94.20;;;;;;3583874;40;20477;-57
2021/07/24 05:17:45;;;;;;;18.17;17.07;;;24.70;94.20;;;;;;3584644;40;20813;-57
2021/07/24 05:20:12;;;;;;;18.27;17.07;;;24.70;94.20;;;;;;3585320;40;20568;-55
2021/07/24 05:22:40;;;;;;;18.10;16.90;;;24.70;94.20;;;;;;3585040;40;20721;-55
2021/07/24 05:25:08;;;;;;;17.33;16.23;;;24.70;94.20;;;;;;3585079;40;20474;-54
2021/07/24 05:27:35;;;;;;;17.63;16.43;;;24.70;94.20;;;;;;3584655;40;20521;-56
2021/07/24 05:30:03;;;;;;;17.00;15.90;;;24.70;94.20;;;;;;3575338;40;20506;-55
2021/07/24 05:32:31;;;;;;;18.13;16.83;;;24.70;94.20;;;;;;3584419;40;20457;-54
2021/07/24 05:34:59;;;;;;;16.83;15.80;;;24.70;94.20;;;;;;3574347;40;20449;-55
2021/07/24 05:37:26;;;;;;;17.53;16.43;;;24.70;94.20;;;;;;3583130;40;20546;-56
2021/07/24 05:39:53;;;;;;;17.17;16.07;;;24.70;94.20;;;;;;3583955;40;20477;-56
2021/07/24 05:42:20;;;;;;;17.03;15.93;;;24.70;94.20;;;;;;3583963;40;21041;-56
2021/07/24 05:44:47;;;;;;;17.80;16.40;;;24.70;94.20;;;;;;3583789;40;21051;-53
2021/07/24 05:47:14;;;;;;;16.30;15.30;;;24.70;94.20;;;;;;3583844;40;20457;-57
2021/07/24 05:49:43;;;;;;;17.23;16.13;;;24.70;94.20;;;;;;3584026;40;20485;-55
2021/07/24 05:52:11;;;;;;;17.40;16.20;;;24.70;94.20;;;;;;3584942;40;20458;-56
2021/07/24 05:54:39;;;;;;;18.17;16.97;;;24.70;94.20;;;;;;3584212;40;20848;-53
2021/07/24 05:57:07;;;;;;;17.00;16.00;;;24.70;94.20;;;;;;3584302;40;20508;-53
2021/07/24 05:59:35;;;;;;;16.90;15.80;;;24.70;94.20;;;;;;3583963;40;20466;-57
2021/07/24 06:02:05;;;;;;;16.77;15.67;;;24.70;94.20;;;;;;3583870;40;20490;-54
2021/07/24 06:04:32;;;;;;;16.00;15.00;;;24.70;94.20;;;;;;3565894;40;21090;-57
2021/07/24 06:07:01;;;;;;;16.47;15.37;;;24.70;94.50;;;;;;3573536;40;20551;-54
2021/07/24 06:09:29;;;;;;;16.30;15.30;;;24.70;94.20;;;;;;3584521;40;20454;-56
2021/07/24 06:11:57;;;;;;;18.00;16.70;;;24.70;94.20;;;;;;3584211;40;20478;-56
2021/07/24 06:14:25;;;;;;;17.70;16.50;;;24.70;94.20;;;;;;3584121;40;20539;-56
2021/07/24 06:16:52;;;;;;;16.87;15.87;;;24.70;94.20;;;;;;3583292;40;20575;-57
2021/07/24 06:19:21;;;;;;;16.93;15.90;;;24.70;94.20;;;;;;3584055;40;20551;-57
2021/07/24 06:21:49;;;;;;;17.40;16.30;;;24.70;94.20;;;;;;3583823;40;20824;-54
2021/07/24 06:24:18;;;;;;;17.07;15.87;;;24.70;94.20;;;;;;3574554;40;20498;-56
2021/07/24 06:26:45;;;;;;;18.23;17.10;;;24.70;94.20;;;;;;3583271;40;20565;-55
2021/07/24 06:29:13;;;;;;;18.00;16.83;;;24.70;94.20;;;;;;3582779;40;20462;-53
2021/07/24 06:31:40;;;;;;;17.57;16.47;;;24.70;94.20;;;;;;3582535;40;20466;-53
2021/07/24 06:34:07;;;;;;;16.60;15.60;;;24.70;94.20;;;;;;3582707;40;20739;-54
2021/07/24 06:36:34;;;;;;;16.87;15.80;;;24.70;94.50;;;;;;3582211;40;20535;-53
2021/07/24 06:39:02;;;;;;;18.03;16.73;;;24.70;94.20;;;;;;3574541;40;20490;-54
2021/07/24 06:41:33;;;;;;;16.70;15.60;;;24.70;94.20;;;;;;3583251;40;20454;-53
2021/07/24 06:44:00;;;;;;;17.23;16.17;;;24.70;94.20;;;;;;3583688;40;20519;-55
2021/07/24 06:46:27;;;;;;;16.33;15.33;;;24.70;94.20;;;;;;3583447;40;20474;-56
2021/07/24 06:48:54;;;;;;;17.20;16.10;;;24.70;94.20;;;;;;3582170;40;20459;-54
2021/07/24 06:51:21;;;;;;;16.77;15.67;;;24.70;94.20;;;;;;3581864;40;20699;-53
2021/07/24 06:53:49;;;;;;;17.20;16.00;;;24.70;94.20;;;;;;3581700;40;20474;-55
2021/07/24 06:56:16;;;;;;;16.73;15.63;;;24.70;94.20;;;;;;3583011;40;20469;-56
2021/07/24 06:58:44;;;;;;;16.43;15.43;;;24.70;94.20;;;;;;3579119;40;20601;-57
2021/07/24 07:01:12;;;;;;;17.27;16.07;;;24.70;94.20;;;;;;3582260;40;20885;-56
2021/07/24 07:03:39;;;;;;;16.90;15.90;;;24.70;94.20;;;;;;3582640;40;20743;-54
2021/07/24 07:06:07;;;;;;;17.30;16.30;;;24.70;94.20;;;;;;3582127;40;20458;-56
2021/07/24 07:08:34;;;;;;;18.23;17.03;;;24.70;94.20;;;;;;3579670;40;20685;-56
2021/07/24 07:11:03;;;;;;;17.37;16.17;;;24.70;94.20;;;;;;3571503;40;20973;-57
2021/07/24 07:13:30;;;;;;;16.97;15.87;;;24.70;94.20;;;;;;3581056;40;20768;-55
2021/07/24 07:15:58;;;;;;;17.20;16.10;;;24.70;94.20;;;;;;3580912;40;20465;-53
2021/07/24 07:18:26;;;;;;;16.47;15.40;;;24.70;94.20;;;;;;3582010;40;20454;-54
2021/07/24 07:20:53;;;;;;;18.00;16.80;;;24.80;94.30;;;;;;3580050;40;20865;-55
2021/07/24 07:23:20;;;;;;;16.43;15.43;;;24.70;94.20;;;;;;3579138;40;20684;-55
2021/07/24 07:25:48;;;;;;;16.20;15.20;;;24.80;94.30;;;;;;3571400;40;20506;-56
2021/07/24 07:28:15;;;;;;;17.10;16.00;;;24.80;94.20;;;;;;3580031;40;20492;-54
2021/07/24 07:30:42;;;;;;;16.70;15.70;;;24.80;94.20;;;;;;3579361;40;20776;-57
2021/07/24 07:33:11;;;;;;;17.10;15.90;;;24.80;94.20;;;;;;3580676;40;20911;-52
2021/07/24 07:35:38;;;;;;;16.40;15.20;;;24.80;94.20;;;;;;3581496;40;20746;-53
2021/07/24 07:38:05;;;;;;;17.50;16.30;;;24.80;94.20;;;;;;3581286;40;20749;-56
2021/07/24 07:40:38;;;;;;;15.43;14.43;;;24.80;94.20;;;;;;3569777;40;20773;-54
2021/07/24 07:43:06;;;;;;;16.57;15.47;;;24.80;94.30;;;;;;3582241;40;20461;-55
2021/07/24 07:45:33;;;;;;;16.90;15.80;;;24.80;94.20;;;;;;3592548;40;20464;-54
2021/07/24 07:48:00;;;;;;;17.17;16.07;;;24.80;94.30;;;;;;3583050;40;20465;-56
2021/07/24 07:50:30;;;;;;;16.17;15.07;;;24.80;94.30;;;;;;3565442;40;20478;-56
2021/07/24 07:52:57;;;;;;;16.37;15.40;;;24.80;94.30;;;;;;3584371;40;20454;-55
2021/07/24 07:55:24;;;;;;;16.97;15.97;;;24.80;94.30;;;;;;3582770;40;20746;-55
2021/07/24 07:57:51;;;;;;;16.43;15.23;;;24.80;94.30;;;;;;3583955;40;20450;-56
2021/07/24 08:00:20;;;;;;;16.60;15.50;;;24.80;94.30;;;;;;3581027;40;20473;-55
2021/07/24 08:02:52;;;;;;;16.60;15.50;;;24.80;94.30;;;;;;3581954;40;20470;-53
2021/07/24 08:05:19;;;;;;;15.70;14.80;;;24.70;94.20;;;;;;3581056;40;20493;-56
2021/07/24 08:07:48;;;;;;;16.13;15.10;;;24.80;94.30;;;;;;3580404;40;20513;-55
2021/07/24 08:10:15;;;;;;;16.10;15.00;;;24.80;94.30;;;;;;3580499;40;20470;-54
2021/07/24 08:12:42;;;;;;;16.03;15.03;;;24.70;94.20;;;;;;3580944;40;20454;-56
2021/07/24 08:15:10;;;;;;;16.57;15.50;;;24.80;94.30;;;;;;3579814;40;20470;-55
2021/07/24 08:17:37;;;;;;;15.93;14.93;;;24.80;94.30;;;;;;3579537;40;20442;-55
2021/07/24 08:20:06;;;;;;;16.60;15.60;;;24.70;94.30;;;;;;3580065;40;20477;-57
2021/07/24 08:22:33;;;;;;;16.70;15.70;;;24.80;94.30;;;;;;3579335;40;20828;-54
2021/07/24 08:25:02;;;;;;;17.73;16.60;;;24.80;94.30;;;;;;3573309;40;20549;-55
2021/07/24 08:27:29;;;;;;;15.97;14.97;;;24.70;94.30;;;;;;3570715;40;20519;-53
2021/07/24 08:29:57;;;;;;;16.00;14.97;;;24.70;94.20;;;;;;3571677;40;20447;-53
2021/07/24 08:32:24;;;;;;;16.50;15.50;;;24.80;94.30;;;;;;3571540;40;20513;-54
2021/07/24 08:34:52;;;;;;;16.47;15.37;;;24.80;94.30;;;;;;3571505;40;20439;-54
2021/07/24 08:37:19;;;;;;;17.30;16.20;;;24.80;94.30;;;;;;3570651;40;20448;-54
2021/07/24 08:39:47;;;;;;;15.33;14.33;;;24.70;94.30;;;;;;3570946;40;20474;-54
2021/07/24 08:42:30;;;;;;;15.97;14.90;;;24.80;94.30;;;;;;3570608;40;20572;-57
2021/07/24 08:44:59;;;;;;;16.23;15.13;;;24.70;94.30;;;;;;3571341;40;20511;-55
2021/07/24 08:47:27;;;;;;;16.20;15.17;;;24.80;94.30;;;;;;3570534;40;20802;-56
2021/07/24 08:49:55;;;;;;;16.13;15.07;;;24.80;94.30;;;;;;3561549;40;20499;-54
2021/07/24 08:52:26;;;;;;;15.93;14.93;;;24.70;94.30;;;;;;3571766;40;20530;-54
2021/07/24 08:54:53;;;;;;;15.73;14.73;;;24.80;94.30;;;;;;3571245;40;20945;-54
2021/07/24 08:57:25;;;;;;;16.27;15.27;;;24.80;94.30;;;;;;3570862;40;20684;-54
2021/07/24 08:59:55;;;;;;;17.27;16.17;;;24.70;94.30;;;;;;3567929;40;20463;-54
2021/07/24 09:02:28;;;;;;;16.80;15.70;;;24.80;94.30;;;;;;3569399;40;20563;-55
2021/07/24 09:04:57;;;;;;;15.67;14.70;;;24.80;94.30;;;;;;3569687;40;20490;-54
2021/07/24 09:07:28;;;;;;;17.17;16.17;;;24.80;94.30;;;;;;3569762;40;20742;-55
2021/07/24 09:09:58;;;;;;;16.47;15.47;;;24.70;94.30;;;;;;3568662;40;20642;-56
2021/07/24 09:12:25;;;;;;;15.83;14.90;;;24.70;94.30;;;;;;3569004;40;21255;-56
2021/07/24 09:14:54;;;;;;;16.30;15.20;;;24.70;94.30;;;;;;3570484;40;20466;-54
2021/07/24 09:17:21;;;;;;;17.20;16.10;;;24.80;94.30;;;;;;3570828;40;20471;-54
2021/07/24 09:19:50;;;;;;;15.90;14.90;;;24.80;94.30;;;;;;3569102;40;20812;-53
2021/07/24 09:22:28;;;;;;;15.80;14.80;;;24.80;94.30;;;;;;3568690;40;20526;-55
2021/07/24 09:25:11;;;;;;;15.83;14.90;;;24.80;94.30;;;;;;3568707;40;20699;-54
2021/07/24 09:27:39;;;;;;;15.80;14.80;;;24.80;94.30;;;;;;3561271;40;20534;-57
2021/07/24 09:30:11;;;;;;;16.60;15.50;;;24.80;94.30;;;;;;3567869;40;20455;-57
2021/07/24 09:32:39;;;;;;;16.47;15.47;;;24.70;94.20;;;;;;3569159;40;20756;-56
2021/07/24 09:35:07;;;;;;;16.40;15.40;;;24.80;94.30;;;;;;3570718;40;20950;-56
2021/07/24 09:37:35;;;;;;;15.10;14.20;;;24.80;94.30;;;;;;3570072;40;20502;-52
2021/07/24 09:40:21;;;;;;;16.37;15.37;;;24.80;94.30;;;;;;3571574;40;20978;-54
2021/07/24 09:42:49;;;;;;;16.13;15.13;;;24.80;94.30;;;;;;3570399;40;20741;-54
2021/07/24 09:45:17;;;;;;;16.67;15.57;;;24.80;94.30;;;;;;3567634;40;20471;-53
2021/07/24 09:47:45;;;;;;;16.40;15.50;;;24.70;94.30;;;;;;3566807;40;20737;-55
2021/07/24 09:50:14;;;;;;;15.73;14.73;;;24.80;94.30;;;;;;3567951;40;20545;-53
2021/07/24 09:52:49;;;;;;;15.77;14.87;;;24.80;94.30;;;;;;3567922;40;20776;-54
2021/07/24 09:55:22;;;;;;;17.17;16.10;;;24.80;94.30;;;;;;3568874;40;20455;-55
2021/07/24 09:57:50;;;;;;;16.37;15.37;;;24.80;94.30;;;;;;3560205;40;20463;-54
2021/07/24 10:00:27;;;;;;;16.17;15.17;;;24.70;94.30;;;;;;3568708;40;20835;-57
2021/07/24 10:02:59;;;;;;;16.20;15.30;;;24.80;94.30;;;;;;3570482;40;20451;-54
2021/07/24 10:05:34;;;;;;;15.73;14.73;;;24.80;94.30;;;;;;3570623;40;20477;-53
2021/07/24 10:08:04;;;;;;;15.87;14.90;;;24.80;94.30;;;;;;3568533;40;20463;-56
2021/07/24 10:10:38;;;;;;;15.13;14.20;;;24.80;94.30;;;;;;3567496;40;20716;-54
2021/07/24 10:13:09;;;;;;;16.60;15.60;;;24.80;94.30;;;;;;3567279;40;20574;-57
2021/07/24 10:15:40;;;;;;;16.87;15.77;;;24.80;94.30;;;;;;3567473;40;20471;-57
2021/07/24 10:18:09;;;;;;;15.87;14.87;;;24.80;94.30;;;;;;3568934;40;20655;-55
2021/07/24 10:20:38;;;;;;;16.30;15.27;;;24.80;94.30;;;;;;3568873;40;20474;-55
2021/07/24 10:23:06;;;;;;;16.67;15.57;;;24.80;94.30;;;;;;3567545;40;20471;-55
2021/07/24 10:25:42;;;;;;;14.53;13.70;;;24.80;94.30;;;;;;3558982;40;20491;-54
2021/07/24 10:28:13;;;;;;;14.83;13.93;;;24.80;94.30;;;;;;3568366;40;20637;-54
2021/07/24 10:30:44;;;;;;;15.77;14.77;;;24.80;94.30;;;;;;3569211;40;20510;-53
2021/07/24 10:33:12;;;;;;;16.37;15.37;;;24.80;94.30;;;;;;3568832;40;21021;-54
2021/07/24 10:35:41;;;;;;;16.30;15.20;;;24.80;94.30;;;;;;3569283;40;20623;-57
2021/07/24 10:38:30;;;;;;;15.50;14.50;;;24.80;94.30;;;;;;3567235;40;20490;-56
2021/07/24 10:41:36;;;;;;;15.80;14.80;;;24.80;94.40;;;;;;3567486;40;20463;-55
2021/07/24 10:44:05;;;;;;;15.50;14.50;;;24.80;94.30;;;;;;3548514;40;20499;-57
2021/07/24 10:47:11;;;;;;;16.00;15.10;;;24.80;94.30;;;;;;3565494;40;20837;-55
2021/07/24 10:50:00;;;;;;;15.00;14.10;;;24.80;94.30;;;;;;3566666;40;20733;-56
2021/07/24 10:53:14;;;;;;;15.83;14.90;;;24.80;94.30;;;;;;3567027;40;20687;-57
2021/07/24 10:55:45;;;;;;;15.57;14.67;;;24.80;94.40;;;;;;3557295;40;20661;-56
2021/07/24 10:58:13;;;;;;;15.53;14.53;;;24.80;94.30;;;;;;3568714;40;20509;-56
2021/07/24 11:03:31;;;;;;;14.63;13.83;;;24.80;94.30;;;;;;3568660;40;20840;-57
2021/07/24 11:06:01;;;;;;;15.80;14.80;;;24.80;94.40;;;;;;3569959;40;20510;-55
2021/07/24 11:09:20;;;;;;;15.07;14.17;;;24.80;94.30;;;;;;3570627;40;20640;-53
2021/07/24 11:11:49;;;;;;;16.30;15.27;;;24.80;94.40;;;;;;3568827;40;20787;-55
2021/07/24 11:14:50;;;;;;;16.03;15.03;;;24.80;94.30;;;;;;3568898;40;20452;-56
2021/07/24 11:17:18;;;;;;;16.53;15.47;;;24.80;94.40;;;;;;3538349;40;20474;-54
2021/07/24 11:20:03;;;;;;;14.73;13.83;;;24.80;94.30;;;;;;3538100;40;20544;-54
2021/07/24 11:22:32;;;;;;;13.60;12.70;;;24.80;94.30;;;;;;3556998;40;20522;-56
2021/07/24 11:25:30;;;;;;;14.40;13.40;;;24.80;94.30;;;;;;3569116;40;20494;-54
2021/07/24 11:27:58;;;;;;;14.90;14.00;;;24.80;94.40;;;;;;3572363;40;20734;-55
2021/07/24 11:30:26;;;;;;;15.50;14.50;;;24.80;94.30;;;;;;3571889;40;20479;-54
2021/07/24 11:32:56;;;;;;;15.30;14.30;;;24.80;94.40;;;;;;3570644;40;20913;-53
2021/07/24 11:35:28;;;;;;;15.23;14.23;;;24.80;94.40;;;;;;3569219;40;21245;-57
2021/07/24 11:37:57;;;;;;;14.57;13.70;;;24.80;94.40;;;;;;3567929;40;20459;-54
2021/07/24 11:40:26;;;;;;;14.57;13.77;;;24.80;94.30;;;;;;3570679;40;20557;-55
2021/07/24 11:42:57;;;;;;;14.07;13.27;;;24.80;94.40;;;;;;3571371;40;20463;-55
2021/07/24 11:45:25;;;;;;;16.47;15.37;;;24.80;94.40;;;;;;3570176;40;20478;-54
2021/07/24 11:48:12;;;;;;;14.90;13.93;;;24.80;94.30;;;;;;3570221;40;20842;-55
2021/07/24 11:50:40;;;;;;;13.93;13.10;;;24.80;94.30;;;;;;3571288;40;20478;-55
2021/07/24 11:53:11;;;;;;;15.17;14.07;;;24.80;94.30;;;;;;3570551;40;20794;-55
2021/07/24 11:55:41;;;;;;;16.00;15.00;;;24.80;94.30;;;;;;3572504;40;20470;-54
2021/07/24 11:58:12;;;;;;;14.67;13.83;;;24.80;94.30;;;;;;3570406;40;20450;-55
2021/07/24 12:00:40;;;;;;;15.20;14.30;;;24.80;94.40;;;;;;3560954;40;20477;-53
2021/07/24 12:03:26;;;;;;;14.37;13.47;;;24.80;94.30;;;;;;3571329;40;20684;-57
2021/07/24 12:05:57;;;;;;;13.93;13.13;;;24.80;94.40;;;;;;3571123;40;20523;-56
2021/07/24 12:08:28;;;;;;;14.67;13.77;;;24.80;94.40;;;;;;3561188;40;20694;-58
2021/07/24 12:10:57;;;;;;;15.33;14.43;;;24.80;94.30;;;;;;3571159;40;20466;-54
2021/07/24 12:13:25;;;;;;;15.23;14.33;;;24.80;94.30;;;;;;3577755;40;20469;-56
2021/07/24 12:16:06;;;;;;;14.00;13.20;;;24.80;94.40;;;;;;3583146;40;20461;-57
2021/07/24 12:18:40;;;;;;;15.57;14.67;;;24.80;94.40;;;;;;3582472;40;20470;-56
2021/07/24 12:21:12;;;;;;;14.80;13.90;;;24.80;94.40;;;;;;3581993;40;20491;-53
2021/07/24 12:23:45;;;;;;;14.40;13.60;;;24.80;94.40;;;;;;3581210;40;20477;-55
2021/07/24 12:26:14;;;;;;;15.50;14.60;;;24.80;94.40;;;;;;3582326;40;20598;-56
2021/07/24 12:28:43;;;;;;;16.13;15.13;;;24.80;94.40;;;;;;3582008;40;20489;-54
2021/07/24 12:31:22;;;;;;;15.60;14.70;;;24.80;94.40;;;;;;3581031;40;20583;-56
2021/07/24 12:33:51;;;;;;;15.37;14.47;;;24.80;94.40;;;;;;3581082;40;20450;-57
2021/07/24 12:36:22;;;;;;;15.10;14.20;;;24.80;94.40;;;;;;3580536;40;20715;-53
2021/07/24 12:38:51;;;;;;;14.77;13.87;;;24.80;94.40;;;;;;3581339;40;20463;-56
2021/07/24 12:41:29;;;;;;;16.00;14.90;;;24.80;94.40;;;;;;3581005;40;20699;-55
2021/07/24 12:44:03;;;;;;;15.70;14.80;;;24.80;94.40;;;;;;3581531;40;20681;-56
2021/07/24 12:46:31;;;;;;;14.10;13.30;;;24.80;94.40;;;;;;3580749;40;20470;-53
2021/07/24 12:48:58;;;;;;;14.73;13.83;;;24.80;94.40;;;;;;3571961;40;20480;-53